createdAt,value
2023-05-05T00:01:46.505Z,3.00
2023-05-05T00:04:13.304Z,3.00
2023-05-05T00:06:39.978Z,3.08
2023-05-05T00:09:07.073Z,3.40
2023-05-05T00:11:33.685Z,3.28
2023-05-05T00:14:00.272Z,3.05
2023-05-05T00:16:27.001Z,3.30
2023-05-05T00:18:53.656Z,3.13
2023-05-05T00:21:20.345Z,2.92
2023-05-05T00:23:46.928Z,2.67
2023-05-05T00:26:13.876Z,3.20
2023-05-05T00:28:42.391Z,3.03
2023-05-05T00:31:09.161Z,2.88
2023-05-05T00:33:35.835Z,3.00
2023-05-05T00:36:02.645Z,2.88
2023-05-05T00:38:29.273Z,2.90
2023-05-05T00:40:56.062Z,3.13
2023-05-05T00:43:22.645Z,2.70
2023-05-05T00:45:56.641Z,3.03
2023-05-05T00:48:25.567Z,2.90
2023-05-05T00:50:52.336Z,2.92
2023-05-05T00:53:18.961Z,2.88
2023-05-05T00:55:46.581Z,2.90
2023-05-05T00:58:13.609Z,2.90
2023-05-05T01:00:40.300Z,2.92
2023-05-05T01:03:07.005Z,3.15
2023-05-05T01:06:20.041Z,2.90
2023-05-05T01:09:28.781Z,2.88
2023-05-05T01:12:04.316Z,2.75
2023-05-05T01:14:39.847Z,2.97
2023-05-05T01:17:13.988Z,2.50
2023-05-05T01:20:07.964Z,2.88
2023-05-05T01:22:41.763Z,2.90
2023-05-05T01:25:12.457Z,3.00
2023-05-05T01:27:50.051Z,2.78
2023-05-05T01:30:39.315Z,3.00
2023-05-05T01:33:08.745Z,2.67
2023-05-05T01:35:41.628Z,2.80
2023-05-05T01:38:13.688Z,2.53
2023-05-05T01:40:52.888Z,2.80
2023-05-05T01:43:21.244Z,2.90
2023-05-05T01:45:49.757Z,2.63
2023-05-05T01:48:18.361Z,2.70
2023-05-05T01:50:46.839Z,2.60
2023-05-05T01:53:13.762Z,2.90
2023-05-05T01:55:40.956Z,2.50
2023-05-05T01:58:07.864Z,2.70
2023-05-05T02:00:34.822Z,2.60
2023-05-05T02:03:04.416Z,2.78
2023-05-05T02:05:32.791Z,2.65
2023-05-05T02:08:00.361Z,2.50
2023-05-05T02:10:27.770Z,2.58
2023-05-05T02:12:57.869Z,3.45
2023-05-05T02:15:25.328Z,3.70
2023-05-05T02:17:52.897Z,3.60
2023-05-05T02:20:20.135Z,3.30
2023-05-05T02:22:47.430Z,3.47
2023-05-05T02:25:14.260Z,3.08
2023-05-05T02:27:43.404Z,2.83
2023-05-05T02:30:11.833Z,2.90
2023-05-05T02:32:41.521Z,2.75
2023-05-05T02:35:18.148Z,2.90
2023-05-05T02:38:00.112Z,3.05
2023-05-05T02:40:32.269Z,3.00
2023-05-05T02:43:01.283Z,2.90
2023-05-05T02:45:30.528Z,2.97
2023-05-05T02:47:57.212Z,3.00
2023-05-05T02:50:24.045Z,2.83
2023-05-05T02:53:01.825Z,3.00
2023-05-05T02:55:33.857Z,2.90
2023-05-05T02:58:08.767Z,2.80
2023-05-05T03:00:51.659Z,3.00
2023-05-05T03:03:59.575Z,2.63
2023-05-05T03:06:27.387Z,3.05
2023-05-05T03:09:09.000Z,2.92
2023-05-05T03:11:47.923Z,3.00
2023-05-05T03:14:18.325Z,3.30
2023-05-05T03:16:47.985Z,3.55
2023-05-05T03:19:17.511Z,3.40
2023-05-05T03:21:46.098Z,3.50
2023-05-05T03:24:22.761Z,3.53
2023-05-05T03:26:57.916Z,3.70
2023-05-05T03:29:31.098Z,3.50
2023-05-05T03:31:58.939Z,3.38
2023-05-05T03:34:25.706Z,3.25
2023-05-05T03:36:52.302Z,3.40
2023-05-05T03:39:19.352Z,3.78
2023-05-05T03:41:46.744Z,3.58
2023-05-05T03:44:14.575Z,3.30
2023-05-05T03:46:41.438Z,3.30
2023-05-05T03:49:11.441Z,3.65
2023-05-05T03:51:40.118Z,3.25
2023-05-05T03:54:07.398Z,3.30
2023-05-05T03:56:34.570Z,3.42
2023-05-05T03:59:01.210Z,3.95
2023-05-05T04:01:29.982Z,3.75
2023-05-05T04:03:58.052Z,3.78
2023-05-05T04:06:25.922Z,3.50
2023-05-05T04:08:52.514Z,3.28
2023-05-05T04:11:19.744Z,3.17
2023-05-05T04:13:46.646Z,3.38
2023-05-05T04:16:13.887Z,3.10
2023-05-05T04:18:40.885Z,3.20
2023-05-05T04:21:07.525Z,2.90
2023-05-05T04:23:34.148Z,3.13
2023-05-05T04:26:01.039Z,3.28
2023-05-05T04:28:28.167Z,3.10
2023-05-05T04:30:55.242Z,3.10
2023-05-05T04:33:22.016Z,2.83
2023-05-05T04:35:50.422Z,2.92
2023-05-05T04:38:17.301Z,3.00
2023-05-05T04:40:44.341Z,3.05
2023-05-05T04:43:11.682Z,2.80
2023-05-05T04:45:39.358Z,3.20
2023-05-05T04:48:06.485Z,3.00
2023-05-05T04:50:33.194Z,2.97
2023-05-05T04:53:00.197Z,3.10
2023-05-05T04:55:26.945Z,3.60
2023-05-05T04:57:53.901Z,3.45
2023-05-05T05:00:20.534Z,3.30
2023-05-05T05:02:47.339Z,4.03
2023-05-05T05:05:14.038Z,3.22
2023-05-05T05:07:40.755Z,3.05
2023-05-05T05:10:08.048Z,3.35
2023-05-05T05:12:35.081Z,3.58
2023-05-05T05:15:01.797Z,3.50
2023-05-05T05:17:30.159Z,3.50
2023-05-05T05:19:59.276Z,4.00
2023-05-05T05:22:26.229Z,3.78
2023-05-05T05:24:53.464Z,3.67
2023-05-05T05:27:20.509Z,3.80
2023-05-05T05:29:49.334Z,3.50
2023-05-05T05:32:16.230Z,3.45
2023-05-05T05:34:43.525Z,3.55
2023-05-05T05:37:11.743Z,3.42
2023-05-05T05:39:38.309Z,3.80
2023-05-05T05:42:05.346Z,3.55
2023-05-05T05:44:32.821Z,3.50
2023-05-05T05:46:59.459Z,3.50
2023-05-05T05:49:26.659Z,3.67
2023-05-05T05:51:53.462Z,3.47
2023-05-05T05:54:20.100Z,3.60
2023-05-05T05:56:46.820Z,3.47
2023-05-05T05:59:13.519Z,3.40
2023-05-05T06:01:41.345Z,3.50
2023-05-05T06:04:08.522Z,3.70
2023-05-05T06:06:35.578Z,4.40
2023-05-05T06:09:02.216Z,4.10
2023-05-05T06:11:30.515Z,4.28
2023-05-05T06:13:57.181Z,4.32
2023-05-05T06:16:23.859Z,3.88
2023-05-05T06:18:50.640Z,4.75
2023-05-05T06:21:20.538Z,4.43
2023-05-05T06:23:47.575Z,5.00
2023-05-05T06:26:14.805Z,4.75
2023-05-05T06:28:41.966Z,5.40
2023-05-05T06:31:08.630Z,5.20
2023-05-05T06:33:35.315Z,5.22
2023-05-05T06:36:01.873Z,5.55
2023-05-05T06:38:28.456Z,4.68
2023-05-05T06:40:55.146Z,5.38
2023-05-05T06:43:21.975Z,5.25
2023-05-05T06:45:54.319Z,5.30
2023-05-05T06:48:20.927Z,4.95
2023-05-05T06:50:47.540Z,4.72
2023-05-05T06:53:14.227Z,5.10
2023-05-05T06:55:43.415Z,4.85
2023-05-05T06:58:10.059Z,4.68
2023-05-05T07:00:36.698Z,4.85
2023-05-05T07:03:03.651Z,4.53
2023-05-05T07:05:30.535Z,4.55
2023-05-05T07:07:57.283Z,4.63
2023-05-05T07:10:24.607Z,4.78
2023-05-05T07:12:52.395Z,4.60
2023-05-05T07:15:27.499Z,4.80
2023-05-05T07:17:56.586Z,4.70
2023-05-05T07:20:23.476Z,4.40
2023-05-05T07:22:50.079Z,4.65
2023-05-05T07:25:16.632Z,4.50
2023-05-05T07:27:43.319Z,4.32
2023-05-05T07:30:14.065Z,4.35
2023-05-05T07:32:43.184Z,4.30
2023-05-05T07:35:09.998Z,4.30
2023-05-05T07:37:36.707Z,4.43
2023-05-05T07:40:03.507Z,4.13
2023-05-05T07:42:30.108Z,4.30
2023-05-05T07:44:56.647Z,4.35
2023-05-05T07:47:23.305Z,4.25
2023-05-05T07:49:49.933Z,4.25
2023-05-05T07:52:16.618Z,4.32
2023-05-05T07:54:45.177Z,4.18
2023-05-05T07:57:11.858Z,4.30
2023-05-05T07:59:41.101Z,4.40
2023-05-05T08:02:07.720Z,4.20
2023-05-05T08:04:34.417Z,4.50
2023-05-05T08:07:01.078Z,4.28
2023-05-05T08:09:27.741Z,3.90
2023-05-05T08:11:54.292Z,4.10
2023-05-05T08:14:20.919Z,4.28
2023-05-05T08:16:47.565Z,4.10
2023-05-05T08:19:27.591Z,4.25
2023-05-05T08:21:56.234Z,3.80
2023-05-05T08:24:22.900Z,4.07
2023-05-05T08:26:49.550Z,3.92
2023-05-05T08:29:16.219Z,3.97
2023-05-05T08:31:45.773Z,4.28
2023-05-05T08:34:12.464Z,4.28
2023-05-05T08:36:39.066Z,3.70
2023-05-05T08:39:05.970Z,4.32
2023-05-05T08:41:33.166Z,4.07
2023-05-05T08:44:00.170Z,4.07
2023-05-05T08:46:28.006Z,3.83
2023-05-05T08:48:55.313Z,4.00
2023-05-05T08:51:22.206Z,4.07
2023-05-05T08:53:55.079Z,4.00
2023-05-05T08:56:22.353Z,3.90
2023-05-05T08:58:49.702Z,3.72
2023-05-05T09:01:16.959Z,3.70
2023-05-05T09:03:44.980Z,3.90
2023-05-05T09:06:11.726Z,3.50
2023-05-05T09:08:38.530Z,3.55
2023-05-05T09:11:05.748Z,3.80
2023-05-05T09:13:32.724Z,3.65
2023-05-05T09:15:59.877Z,3.80
2023-05-05T09:18:26.916Z,3.33
2023-05-05T09:20:53.526Z,3.55
2023-05-05T09:23:20.800Z,3.70
2023-05-05T09:26:02.488Z,3.20
2023-05-05T09:28:29.405Z,3.30
2023-05-05T09:30:56.236Z,3.38
2023-05-05T09:33:31.129Z,3.20
2023-05-05T09:38:25.180Z,3.20
2023-05-05T09:40:53.047Z,3.40
2023-05-05T09:43:21.549Z,3.42
2023-05-05T09:45:51.432Z,3.20
2023-05-05T09:48:24.554Z,3.30
2023-05-05T09:50:51.761Z,3.00
2023-05-05T09:53:18.994Z,2.92
2023-05-05T09:55:56.253Z,2.97
2023-05-05T09:58:27.644Z,3.13
2023-05-05T10:00:56.101Z,2.97
2023-05-05T10:03:23.182Z,3.03
2023-05-05T10:05:54.354Z,3.20
2023-05-05T10:08:32.033Z,2.72
2023-05-05T10:11:00.912Z,3.05
2023-05-05T10:13:28.913Z,3.03
2023-05-05T10:15:57.307Z,2.90
2023-05-05T10:18:25.795Z,3.17
2023-05-05T10:21:03.362Z,2.95
2023-05-05T10:23:48.957Z,2.88
2023-05-05T10:26:17.188Z,2.80
2023-05-05T10:28:56.452Z,2.90
2023-05-05T10:31:36.497Z,3.17
2023-05-05T10:34:10.866Z,2.85
2023-05-05T10:36:40.507Z,3.25
2023-05-05T10:39:09.333Z,2.92
2023-05-05T10:41:36.982Z,3.05
2023-05-05T10:44:04.618Z,3.03
2023-05-05T10:46:31.752Z,2.90
2023-05-05T10:49:27.548Z,2.88
2023-05-05T10:52:12.147Z,3.00
2023-05-05T10:54:38.789Z,3.00
2023-05-05T10:57:08.126Z,3.00
2023-05-05T10:59:38.186Z,2.92
2023-05-05T11:02:31.669Z,2.90
2023-05-05T11:05:05.205Z,3.00
2023-05-05T11:07:32.541Z,2.70
2023-05-05T11:10:03.655Z,3.00
2023-05-05T11:12:31.854Z,2.88
2023-05-05T11:15:27.556Z,2.90
2023-05-05T11:17:55.328Z,2.90
2023-05-05T11:20:57.418Z,2.88
2023-05-05T11:23:24.405Z,2.85
2023-05-05T11:25:52.057Z,2.88
2023-05-05T11:28:22.592Z,2.72
2023-05-05T11:30:55.198Z,3.05
2023-05-05T11:33:36.030Z,3.00
2023-05-05T11:36:07.341Z,2.63
2023-05-05T11:38:52.704Z,2.92
2023-05-05T11:41:28.312Z,2.90
2023-05-05T11:44:15.594Z,2.80
2023-05-05T11:47:05.015Z,2.80
2023-05-05T11:49:33.026Z,2.63
2023-05-05T11:52:04.572Z,2.67
2023-05-05T11:54:31.983Z,2.70
2023-05-05T11:57:08.079Z,2.72
2023-05-05T11:59:37.483Z,2.80
2023-05-05T12:02:04.620Z,2.85
2023-05-05T12:04:31.981Z,2.70
2023-05-05T12:06:59.051Z,2.70
2023-05-05T12:09:25.693Z,2.83
2023-05-05T12:11:53.754Z,2.97
2023-05-05T12:14:21.156Z,3.30
2023-05-05T12:17:06.514Z,3.40
2023-05-05T12:22:04.324Z,3.90
2023-05-05T12:24:31.140Z,3.92
2023-05-05T12:27:15.962Z,3.88
2023-05-05T12:29:42.556Z,3.95
2023-05-05T12:32:18.229Z,4.10
2023-05-05T12:34:45.195Z,4.30
2023-05-05T12:37:12.226Z,4.18
2023-05-05T12:39:38.896Z,4.13
2023-05-05T12:42:06.369Z,4.05
2023-05-05T12:44:37.089Z,4.18
2023-05-05T12:47:04.166Z,4.25
2023-05-05T12:49:34.101Z,3.65
2023-05-05T12:52:01.012Z,3.97
2023-05-05T12:54:30.621Z,3.63
2023-05-05T12:56:57.451Z,3.95
2023-05-05T12:59:24.219Z,3.92
2023-05-05T13:02:00.152Z,3.88
2023-05-05T13:04:27.925Z,4.00
2023-05-05T13:07:14.702Z,3.83
2023-05-05T13:09:41.942Z,3.70
2023-05-05T13:12:11.618Z,3.40
2023-05-05T13:14:38.983Z,3.72
2023-05-05T13:17:05.757Z,3.72
2023-05-05T13:19:35.428Z,3.35
2023-05-05T13:22:02.395Z,3.53
2023-05-05T13:24:46.690Z,3.80
2023-05-05T13:27:16.546Z,3.53
2023-05-05T13:29:43.842Z,3.60
2023-05-05T13:32:10.648Z,3.53
2023-05-05T13:34:39.242Z,3.30
2023-05-05T13:37:06.299Z,3.42
2023-05-05T13:39:32.931Z,3.10
2023-05-05T13:41:59.557Z,2.92
2023-05-05T13:44:26.138Z,2.28
2023-05-05T13:46:53.099Z,2.35
2023-05-05T13:49:23.469Z,2.50
2023-05-05T13:51:50.116Z,2.63
2023-05-05T13:54:16.925Z,2.58
2023-05-05T13:56:43.940Z,2.70
2023-05-05T13:59:10.546Z,2.70
2023-05-05T14:01:37.575Z,2.65
2023-05-05T14:04:05.636Z,2.90
2023-05-05T14:06:33.699Z,2.80
2023-05-05T14:09:00.611Z,2.80
2023-05-05T14:11:27.454Z,2.80
2023-05-05T14:13:54.199Z,2.90
2023-05-05T14:16:20.964Z,2.40
2023-05-05T14:18:47.605Z,2.83
2023-05-05T14:21:14.241Z,2.30
2023-05-05T14:23:40.870Z,2.63
2023-05-05T14:26:09.066Z,2.30
2023-05-05T14:28:35.994Z,2.55
2023-05-05T14:31:02.639Z,2.70
2023-05-05T14:33:29.230Z,2.42
2023-05-05T14:35:55.903Z,2.40
2023-05-05T14:38:22.693Z,2.50
2023-05-05T14:40:49.371Z,2.50
2023-05-05T14:43:16.204Z,2.63
2023-05-05T14:45:44.219Z,2.22
2023-05-05T14:48:10.968Z,2.33
2023-05-05T14:50:38.535Z,2.38
2023-05-05T14:53:05.188Z,2.53
2023-05-05T14:55:31.836Z,2.28
2023-05-05T14:57:58.513Z,2.40
2023-05-05T15:00:26.828Z,2.28
2023-05-05T15:02:53.631Z,2.40
2023-05-05T15:05:20.300Z,2.10
2023-05-05T15:07:46.944Z,2.20
2023-05-05T15:10:13.674Z,2.28
2023-05-05T15:12:40.746Z,2.00
2023-05-05T15:15:08.606Z,2.13
2023-05-05T15:17:37.410Z,2.13
2023-05-05T15:20:05.959Z,2.50
2023-05-05T15:22:32.592Z,2.20
2023-05-05T15:24:59.733Z,2.00
2023-05-05T15:27:26.369Z,2.28
2023-05-05T15:29:53.004Z,2.40
2023-05-05T15:32:19.773Z,1.90
2023-05-05T15:34:47.685Z,2.03
2023-05-05T15:37:16.383Z,1.98
2023-05-05T15:39:43.034Z,1.90
2023-05-05T15:42:10.247Z,1.98
2023-05-05T15:44:36.915Z,2.30
2023-05-05T15:47:03.836Z,2.15
2023-05-05T15:49:30.637Z,1.90
2023-05-05T15:51:57.906Z,2.10
2023-05-05T15:54:24.655Z,2.20
2023-05-05T15:56:51.238Z,1.83
2023-05-05T15:59:19.470Z,2.10
2023-05-05T16:01:46.973Z,1.98
2023-05-05T16:04:13.864Z,2.13
2023-05-05T16:06:40.811Z,1.95
2023-05-05T16:09:07.452Z,2.10
2023-05-05T16:11:34.084Z,2.15
2023-05-05T16:14:00.804Z,1.80
2023-05-05T16:16:27.485Z,1.88
2023-05-05T16:18:54.125Z,1.98
2023-05-05T16:21:20.901Z,1.85
2023-05-05T16:23:47.524Z,1.80
2023-05-05T16:26:14.104Z,2.10
2023-05-05T16:28:40.678Z,1.90
2023-05-05T16:31:09.603Z,2.00
2023-05-05T16:33:40.699Z,2.17
2023-05-05T16:36:09.799Z,2.33
2023-05-05T16:38:36.359Z,1.95
2023-05-05T16:41:03.044Z,2.17
2023-05-05T16:43:29.662Z,2.10
2023-05-05T16:45:56.448Z,2.28
2023-05-05T16:48:23.074Z,2.05
2023-05-05T16:50:50.036Z,2.13
2023-05-05T16:53:16.786Z,1.90
2023-05-05T16:55:43.420Z,2.10
2023-05-05T16:58:10.010Z,2.10
2023-05-05T17:00:36.640Z,1.98
2023-05-05T17:03:03.600Z,1.95
2023-05-05T17:05:30.367Z,2.17
2023-05-05T17:07:57.011Z,2.13
2023-05-05T17:10:23.757Z,2.22
2023-05-05T17:12:50.439Z,2.10
2023-05-05T17:15:17.293Z,2.20
2023-05-05T17:17:43.955Z,2.30
2023-05-05T17:20:11.188Z,2.20
2023-05-05T17:22:38.105Z,2.60
2023-05-05T17:25:05.283Z,2.33
2023-05-05T17:27:31.916Z,2.30
2023-05-05T17:29:58.751Z,2.40
2023-05-05T17:32:25.867Z,2.03
2023-05-05T17:34:52.503Z,2.53
2023-05-05T17:37:19.089Z,2.40
2023-05-05T17:39:45.692Z,2.47
2023-05-05T17:42:12.341Z,2.53
2023-05-05T17:44:41.194Z,2.40
2023-05-05T17:47:08.454Z,2.40
2023-05-05T17:49:35.025Z,2.35
2023-05-05T17:52:01.764Z,2.42
2023-05-05T17:54:28.386Z,2.50
2023-05-05T17:56:55.100Z,2.20
2023-05-05T17:59:22.018Z,2.35
2023-05-05T18:01:48.720Z,2.60
2023-05-05T18:04:15.383Z,2.60
2023-05-05T18:06:42.092Z,2.53
2023-05-05T18:09:10.879Z,2.35
2023-05-05T18:11:37.819Z,2.38
2023-05-05T18:14:04.457Z,2.40
2023-05-05T18:16:31.076Z,2.40
2023-05-05T18:18:57.686Z,2.40
2023-05-05T18:21:24.303Z,2.58
2023-05-05T18:23:50.919Z,2.40
2023-05-05T18:26:17.658Z,2.80
2023-05-05T18:28:44.256Z,2.70
2023-05-05T18:31:10.936Z,2.75
2023-05-05T18:33:37.704Z,2.53
2023-05-05T18:36:06.112Z,2.65
2023-05-05T18:38:32.832Z,2.78
2023-05-05T18:40:59.393Z,2.90
2023-05-05T18:43:25.953Z,2.72
2023-05-05T18:45:52.570Z,2.65
2023-05-05T18:48:19.412Z,2.60
2023-05-05T18:50:46.825Z,2.60
2023-05-05T18:53:15.040Z,2.78
2023-05-05T18:55:43.374Z,2.38
2023-05-05T18:58:10.031Z,2.80
2023-05-05T19:00:37.435Z,2.75
2023-05-05T19:03:04.159Z,2.50
2023-05-05T19:05:30.823Z,3.05
2023-05-05T19:07:57.427Z,2.60
2023-05-05T19:10:23.998Z,2.45
2023-05-05T19:12:50.641Z,2.50
2023-05-05T19:15:18.275Z,2.60
2023-05-05T19:17:44.933Z,2.40
2023-05-05T19:20:11.751Z,2.53
2023-05-05T19:22:38.390Z,2.80
2023-05-05T19:25:06.402Z,2.70
2023-05-05T19:27:33.962Z,2.60
2023-05-05T19:30:00.636Z,2.70
2023-05-05T19:32:27.272Z,2.50
2023-05-05T19:34:54.472Z,2.50
2023-05-05T19:37:21.149Z,2.58
2023-05-05T19:39:48.568Z,2.50
2023-05-05T19:42:16.590Z,2.40
2023-05-05T19:44:43.340Z,2.50
2023-05-05T19:47:10.972Z,2.50
2023-05-05T19:49:37.938Z,2.53
2023-05-05T19:52:04.810Z,2.70
2023-05-05T19:54:31.501Z,2.67
2023-05-05T19:56:58.186Z,2.50
2023-05-05T19:59:24.812Z,2.50
2023-05-05T20:01:51.675Z,2.70
2023-05-05T20:04:18.510Z,2.67
2023-05-05T20:06:45.367Z,2.60
2023-05-05T20:09:11.992Z,2.88
2023-05-05T20:11:38.638Z,2.60
2023-05-05T20:14:05.255Z,2.40
2023-05-05T20:16:31.955Z,2.35
2023-05-05T20:18:58.672Z,2.55
2023-05-05T20:21:25.350Z,2.22
2023-05-05T20:23:54.501Z,2.03
2023-05-05T20:26:21.556Z,2.33
2023-05-05T20:28:48.097Z,2.42
2023-05-05T20:31:14.924Z,2.40
2023-05-05T20:33:41.781Z,2.58
2023-05-05T20:36:08.421Z,2.88
2023-05-05T20:38:35.124Z,3.05
2023-05-05T20:41:01.749Z,3.17
2023-05-05T20:43:28.511Z,3.85
2023-05-05T20:45:55.243Z,3.65
2023-05-05T20:48:21.823Z,3.63
2023-05-05T20:50:48.419Z,4.35
2023-05-05T20:53:18.869Z,4.20
2023-05-05T20:55:45.537Z,4.35
2023-05-05T20:58:12.216Z,4.68
2023-05-05T21:00:38.891Z,4.80
2023-05-05T21:03:06.067Z,4.55
2023-05-05T21:05:32.879Z,5.10
2023-05-05T21:08:01.166Z,4.60
2023-05-05T21:10:28.936Z,4.65
2023-05-05T21:12:55.817Z,5.00
2023-05-05T21:15:22.715Z,4.88
2023-05-05T21:17:49.382Z,4.85
2023-05-05T21:20:16.572Z,4.80
2023-05-05T21:22:43.214Z,4.75
2023-05-05T21:25:17.995Z,4.60
2023-05-05T21:30:11.652Z,4.75
2023-05-05T21:32:39.232Z,4.80
2023-05-05T21:35:07.473Z,4.63
2023-05-05T21:37:34.358Z,4.72
2023-05-05T21:40:01.118Z,4.47
2023-05-05T21:42:29.609Z,4.93
2023-05-05T21:44:56.652Z,4.50
2023-05-05T21:47:23.278Z,4.60
2023-05-05T21:49:50.097Z,4.35
2023-05-05T21:52:19.564Z,4.53
2023-05-05T21:54:46.272Z,4.60
2023-05-05T21:57:12.822Z,4.25
2023-05-05T21:59:39.443Z,4.47
2023-05-05T22:02:06.058Z,4.18
2023-05-05T22:04:32.758Z,4.07
2023-05-05T22:06:59.446Z,4.38
2023-05-05T22:09:26.000Z,4.10
2023-05-05T22:11:52.704Z,4.55
2023-05-05T22:14:19.374Z,4.25
2023-05-05T22:16:46.118Z,4.32
2023-05-05T22:19:12.745Z,4.22
2023-05-05T22:21:39.500Z,3.90
2023-05-05T22:24:07.291Z,4.30
2023-05-05T22:26:34.086Z,4.15
2023-05-05T22:29:00.863Z,3.70
2023-05-05T22:31:27.622Z,3.70
2023-05-05T22:33:54.288Z,3.97
2023-05-05T22:36:21.710Z,4.00
2023-05-05T22:38:48.514Z,3.83
2023-05-05T22:41:16.056Z,3.80
2023-05-05T22:43:42.648Z,3.90
2023-05-05T22:46:09.230Z,4.10
2023-05-05T22:48:35.962Z,4.00
2023-05-05T22:51:03.433Z,3.65
2023-05-05T22:53:30.154Z,3.63
2023-05-05T22:55:58.330Z,3.67
2023-05-05T22:58:25.184Z,3.60
2023-05-05T23:00:52.030Z,3.53
2023-05-05T23:03:18.761Z,3.40
2023-05-05T23:05:45.336Z,3.95
2023-05-05T23:08:11.925Z,3.80
2023-05-05T23:10:38.521Z,3.80
2023-05-05T23:13:05.190Z,3.53
2023-05-05T23:15:31.884Z,3.55
2023-05-05T23:17:58.504Z,3.45
2023-05-05T23:20:25.550Z,3.72
2023-05-05T23:22:52.102Z,3.45
2023-05-05T23:25:18.875Z,3.58
2023-05-05T23:27:45.537Z,3.67
2023-05-05T23:30:13.052Z,3.67
2023-05-05T23:32:39.975Z,3.85
2023-05-05T23:35:07.239Z,3.60
2023-05-05T23:37:33.920Z,3.53
2023-05-05T23:40:00.613Z,3.47
2023-05-05T23:42:27.231Z,3.47
2023-05-05T23:44:53.934Z,3.50
2023-05-05T23:47:20.736Z,3.63
2023-05-05T23:49:47.293Z,3.42
2023-05-05T23:52:14.010Z,3.60
2023-05-05T23:54:40.950Z,3.72
2023-05-05T23:57:07.916Z,3.88
2023-05-05T23:59:34.493Z,3.67
